Flight Track Log - Related Links

Times and Time Zones

All times are in EDT time to prevent confusion due to time zone crossing. See the UAL3779 flight status page for this flight to view local times or setup timezone preferences in your user account.

Time Position Orientation Groundspeed Altitude Reporting Facility
EDT Latitude Longitude Course Direction KTS MPH feet Rate Location/Type
Sat 08:51:13 PM 42.0000 -87.9333 37° Northeast 170 196 1,800  Level Chicago TRACON
Sat 08:52:01 PM 42.0333 -87.9000 37° Northeast 232 267 4,000 2,421 Climbing Chicago TRACON
Sat 08:53:07 PM 42.0500 -87.8000 77° East 287 330 6,400 2,461 Climbing Chicago TRACON
Sat 08:54:59 PM 42.0642 -87.5853 85° East 325 374 11,300 2,497 Climbing Chicago Center
Sat 08:56:00 PM 42.0756 -87.4511 83° East 358 412 13,600 1,951 Climbing Chicago Center
Sat 08:57:02 PM 42.0908 -87.3047 82° East 393 452 15,300 2,000 Climbing Chicago Center
Sat 08:58:03 PM 42.1044 -87.1478 83° East 419 482 17,700 2,213 Climbing Chicago Center
Sat 08:59:04 PM 42.1153 -86.9892 85° East 425 489 19,800 1,869 Climbing Chicago Center
Sat 09:00:05 PM 42.1214 -86.8225 87° East 443 510 21,500 1,707 Climbing Chicago Center
Sat 09:01:07 PM 42.1269 -86.6481 87° East 456 525 23,300 1,610 Climbing Chicago Center
Sat 09:02:08 PM 42.1344 -86.4708 87° East 469 540 24,800 1,377 Climbing Chicago Center
Sat 09:03:09 PM 42.1392 -86.2886 88° East 483 556 26,100 1,561 Climbing Chicago Center
Sat 09:04:11 PM 42.1456 -86.0647 88° East 495 570 28,000 1,268 Climbing Chicago Center
Sat 09:05:12 PM 42.1417 -85.8922 92° East 502 578 28,700 984 Climbing Chicago Center
Sat 09:06:13 PM 42.1414 -85.6989 90° East 515 593 30,000 1,073 Climbing Chicago Center
Sat 09:07:15 PM 42.1400 -85.5025 90° East 526 605 30,900 1,220 Climbing Chicago Center
Sat 09:08:16 PM 42.1392 -85.3067 90° East 527 606 32,500 1,239 Climbing Chicago Center
Sat 09:08:47 PM 42.1406 -85.1931 89° East 518 596 32,800 923 Climbing Cleveland Center
Sat 09:09:47 PM 42.1397 -84.9969 90° East 518 596 33,900 900 Climbing Cleveland Center
Sat 09:10:47 PM 42.1347 -84.7978 92° East 523 602 34,600 950 Climbing Cleveland Center
Sat 09:11:47 PM 42.1286 -84.6208 93° East 528 608 35,800 1,050 Climbing Cleveland Center
Sat 09:12:47 PM 42.1339 -84.4111 88° East 521 600 36,700 600 Climbing Cleveland Center
Sat 09:13:47 PM 42.1531 -84.1992 83° East 514 592 37,000 150 Climbing Cleveland Center
Sat 09:14:47 PM 42.1739 -84.0014 82° East 519 597 37,000  Level Cleveland Center
Sat 09:15:47 PM 42.1942 -83.8036 82° East 524 603 37,000  Level Cleveland Center
Sat 09:16:47 PM 42.2183 -83.6056 81° East 524 603 37,000  Level Cleveland Center
Sat 09:17:47 PM 42.2294 -83.4128 85° East 524 603 37,000  Level Cleveland Center
Sat 09:18:47 PM 42.2300 -83.2136 90° East 518 596 37,000  Level Cleveland Center
Sat 09:19:47 PM 42.2297 -83.0342 90° East 518 596 37,000  Level Cleveland Center
Sat 09:20:47 PM 42.2317 -82.8378 89° East 523 602 37,000  Level Cleveland Center
Sat 09:21:47 PM 42.2314 -82.6386 90° East 523 602 37,000  Level Cleveland Center
Sat 09:22:47 PM 42.2325 -82.4397 90° East 523 602 37,000  Level Cleveland Center
Sat 09:23:47 PM 42.2336 -82.2433 89° East 523 602 37,000  Level Cleveland Center
Sat 09:24:47 PM 42.2319 -82.0414 91° East 528 608 37,000  Level Cleveland Center
Sat 09:25:47 PM 42.2325 -81.8394 90° East 533 613 37,000  Level Cleveland Center
Sat 09:26:47 PM 42.2322 -81.6458 90° East 533 613 37,000  Level Cleveland Center
Sat 09:27:47 PM 42.2297 -81.4442 91° East 533 613 37,000  Level Cleveland Center
Sat 09:28:47 PM 42.2292 -81.2281 90° East 533 613 37,000  Level Cleveland Center
Sat 09:29:47 PM 42.2281 -81.0289 90° East 533 613 37,000  Level Cleveland Center
Sat 09:30:47 PM 42.2244 -80.8300 91° East 533 613 37,000  Level Cleveland Center
Sat 09:31:47 PM 42.2225 -80.6281 91° East 533 613 37,000  Level Cleveland Center
Sat 09:32:47 PM 42.2372 -80.4289 84° East 533 613 37,000  Level Cleveland Center
Sat 09:33:47 PM 42.2514 -80.2297 84° East 533 613 37,000  Level Cleveland Center
Sat 09:34:47 PM 42.2672 -80.0306 84° East 540 621 37,000  Level Cleveland Center
Sat 09:35:47 PM 42.2828 -79.8311 84° East 540 621 37,000  Level Cleveland Center
Sat 09:36:47 PM 42.3000 -79.6258 83° East 540 621 37,000  Level Cleveland Center
Sat 09:37:47 PM 42.3147 -79.4264 84° East 540 621 37,000  Level Cleveland Center
Sat 09:38:47 PM 42.3314 -79.2208 84° East 540 621 37,000  Level Cleveland Center
Sat 09:39:47 PM 42.3453 -79.0183 85° East 540 621 37,000  Level Cleveland Center
Sat 09:40:47 PM 42.3611 -78.8128 84° East 540 621 37,000  Level Cleveland Center
Sat 09:41:47 PM 42.3767 -78.6100 84° East 540 621 37,000  Level Cleveland Center
Sat 09:42:47 PM 42.3917 -78.4072 84° East 540 621 37,000 -500 Level Cleveland Center
Sat 09:43:47 PM 42.4064 -78.2042 84° East 540 621 36,000 -1,000 Descending Cleveland Center
Sat 09:44:47 PM 42.4186 -77.9928 85° East 546 628 35,000 -500 Descending Cleveland Center
Sat 09:45:47 PM 42.4333 -77.8150 84° East 546 628 35,000  Level Cleveland Center
Sat 09:47:36 PM 42.4544 -77.4503 85° East 538 619 35,000  Level Boston Center
Sat 09:48:34 PM 42.4650 -77.2539 86° East 532 612 35,000  Level Boston Center
Sat 09:49:34 PM 42.4714 -77.0517 87° East 532 612 35,000  Level Boston Center
Sat 09:50:35 PM 42.4731 -76.8544 89° East 532 612 35,000  Level Boston Center
Sat 09:51:37 PM 42.4722 -76.6572 90° East 532 612 35,000  Level Boston Center
Sat 09:52:34 PM 42.4708 -76.4600 90° East 532 612 35,000 -103 Level Boston Center
Sat 09:53:34 PM 42.4697 -76.2572 90° East 532 612 34,800 -836 Descending Boston Center
Sat 09:54:36 PM 42.4722 -76.0489 89° East 538 619 33,300 -1,500 Descending Boston Center
Sat 09:55:34 PM 42.4725 -75.8433 90° East 548 631 31,800 -1,364 Descending Boston Center
Sat 09:56:48 PM 42.4719 -75.6464 90° East 540 621 30,300 -1,478 Descending Boston Center
Sat 09:57:48 PM 42.4694 -75.4294 91° East 504 580 28,500 -1,500 Descending Boston Center
Sat 09:58:48 PM 42.4689 -75.2858 90° East 484 557 27,300 -1,525 Descending Boston Center
Sat 09:59:46 PM 42.4678 -75.0747 90° East 472 543 25,500 -1,373 Descending Boston Center
Sat 10:00:46 PM 42.4717 -74.9058 88° East 461 531 24,600 -1,300 Descending Boston Center
Sat 10:01:46 PM 42.4750 -74.7428 88° East 447 514 22,900 -1,736 Descending Boston Center
Sat 10:02:47 PM 42.4786 -74.5600 88° East 437 503 21,100 -1,650 Descending Boston Center
Sat 10:03:46 PM 42.4836 -74.3994 88° East 432 497 19,600 -1,513 Descending Boston Center
Sat 10:04:46 PM 42.4822 -74.2278 91° East 441 507 18,100 -1,450 Descending Boston Center
Sat 10:05:46 PM 42.4844 -74.0869 89° East 429 494 16,700 -1,500 Descending Boston Center
Sat 10:06:46 PM 42.4617 -73.9203 100° East 412 474 15,100 -850 Descending Boston Center
Sat 10:07:46 PM 42.4319 -73.7903 107° East 402 463 15,000 -50 Descending Boston Center
Sat 10:08:46 PM 42.3942 -73.6292 108° East 407 468 15,000 -197 Level Boston Center
Sat 10:09:48 PM 42.3622 -73.4994 108° East 407 468 14,600 -1,250 Descending Boston Center
Sat 10:10:46 PM 42.3281 -73.3500 107° East 394 453 12,500 -1,756 Descending Boston Center
Sat 10:11:51 PM 42.2914 -73.2092 109° East 374 430 11,000 -976 Descending Boston Center
Sat 10:12:49 PM 42.2692 -73.1106 107° East 354 407 10,500 -1,190 Descending Boston Center
Sat 10:13:47 PM 42.2406 -72.9925 108° East 310 357 8,700 -1,678 Descending Boston Center
Sat 10:14:47 PM 42.2161 -72.8997 110° East 294 338 7,200 -1,600 Descending Boston Center
Sat 10:15:47 PM 42.1853 -72.7875 110° East 294 338 5,500 -1,559 Descending Boston Center
Sat 10:16:54 PM 42.1311 -72.7033 131° Southeast 271 312 3,900 -1,240 Descending Boston Center
Sat 10:17:48 PM 42.0939 -72.6444 130° Southeast 269 310 3,000 -650 Descending Boston Center
Sat 10:18:54 PM 42.0481 -72.5772 133° Southeast 182 209 2,600 -422 Descending Boston Center
Sat 10:19:56 PM 42.0147 -72.5853 190° South 130 150 2,100 -537 Descending Boston Center
Sat 10:20:57 PM 41.9939 -72.6189 230° Southwest 118 136 1,500 -639 Descending Boston Center
Sat 10:21:58 PM 41.9689 -72.6467 220° Southwest 117 135 800 -590 Descending Boston Center
Sat 10:22:59 PM 41.9519 -72.6744 231° Southwest 126 145 300 -492 Descending Boston Center
Sat 10:24:00 PM 41.9333 -72.6833 176° South  Level FlightAware Approximate
Sat 10:31:00 PM 41.9392 -72.6834 176° South  Level Estimated
Sat 10:32:00 PM 41.9333 -72.6833 176° South  Level FlightAware Approximate
Sat 10:33:00 PM 41.9392 -72.6834 176° South  Level Estimated
Sat 10:34:00 PM 41.9333 -72.6833 176° South  Level FlightAware Approximate

Login

Don't have an account? Register now (free) for customized features, flight alerts, and more!